sensor_id;sensor_type;location;lat;lon;timestamp;temperature;humidity
31975;DHT22;18500;43.618;1.474;2024-02-15T08:17:14;12.60;1.00
31975;DHT22;18500;43.618;1.474;2024-02-15T08:19:40;12.70;1.00
31975;DHT22;18500;43.618;1.474;2024-02-15T08:22:07;12.70;1.00
31975;DHT22;18500;43.618;1.474;2024-02-15T08:24:33;12.70;1.00
31975;DHT22;18500;43.618;1.474;2024-02-15T08:26:59;12.80;1.00
31975;DHT22;18500;43.618;1.474;2024-02-15T08:29:25;12.90;1.00
31975;DHT22;18500;43.618;1.474;2024-02-15T08:31:51;12.90;1.00
31975;DHT22;18500;43.618;1.474;2024-02-15T08:34:16;13.00;1.00
31975;DHT22;18500;43.618;1.474;2024-02-15T08:36:44;13.10;1.00
31975;DHT22;18500;43.618;1.474;2024-02-15T08:39:10;13.10;1.00
31975;DHT22;18500;43.618;1.474;2024-02-15T08:41:38;13.10;1.00
31975;DHT22;18500;43.618;1.474;2024-02-15T08:44:04;13.10;1.00
31975;DHT22;18500;43.618;1.474;2024-02-15T08:46:34;13.10;1.00
31975;DHT22;18500;43.618;1.474;2024-02-15T08:49:02;13.10;1.00
31975;DHT22;18500;43.618;1.474;2024-02-15T08:51:29;13.10;1.00
31975;DHT22;18500;43.618;1.474;2024-02-15T08:53:56;13.00;1.00
31975;DHT22;18500;43.618;1.474;2024-02-15T08:56:21;13.10;1.00
31975;DHT22;18500;43.618;1.474;2024-02-15T08:58:49;13.00;1.00
31975;DHT22;18500;43.618;1.474;2024-02-15T09:01:14;13.10;1.00
31975;DHT22;18500;43.618;1.474;2024-02-15T09:03:41;13.10;1.00
31975;DHT22;18500;43.618;1.474;2024-02-15T09:06:06;13.20;1.00
31975;DHT22;18500;43.618;1.474;2024-02-15T09:08:33;13.30;1.00
31975;DHT22;18500;43.618;1.474;2024-02-15T09:10:59;13.40;1.00
31975;DHT22;18500;43.618;1.474;2024-02-15T09:13:25;13.60;1.00
31975;DHT22;18500;43.618;1.474;2024-02-15T09:15:50;13.80;1.00
31975;DHT22;18500;43.618;1.474;2024-02-15T09:18:16;13.90;1.00
31975;DHT22;18500;43.618;1.474;2024-02-15T09:20:48;14.00;1.00
31975;DHT22;18500;43.618;1.474;2024-02-15T09:23:15;14.10;1.00
31975;DHT22;18500;43.618;1.474;2024-02-15T09:25:41;14.20;1.00
31975;DHT22;18500;43.618;1.474;2024-02-15T09:28:09;14.50;1.00
31975;DHT22;18500;43.618;1.474;2024-02-15T09:30:35;14.50;1.00
31975;DHT22;18500;43.618;1.474;2024-02-15T09:33:01;14.60;1.00
31975;DHT22;18500;43.618;1.474;2024-02-15T09:35:30;14.70;1.00
31975;DHT22;18500;43.618;1.474;2024-02-15T09:37:57;14.60;1.00
31975;DHT22;18500;43.618;1.474;2024-02-15T09:40:23;14.60;1.00
31975;DHT22;18500;43.618;1.474;2024-02-15T09:42:52;14.60;1.00
31975;DHT22;18500;43.618;1.474;2024-02-15T09:45:18;14.60;1.00
31975;DHT22;18500;43.618;1.474;2024-02-15T09:47:46;14.60;1.00
31975;DHT22;18500;43.618;1.474;2024-02-15T09:50:13;14.60;1.00
31975;DHT22;18500;43.618;1.474;2024-02-15T09:52:42;14.60;1.00
31975;DHT22;18500;43.618;1.474;2024-02-15T09:55:11;14.70;1.00
31975;DHT22;18500;43.618;1.474;2024-02-15T09:57:43;14.70;1.00
31975;DHT22;18500;43.618;1.474;2024-02-15T10:00:10;14.70;1.00
31975;DHT22;18500;43.618;1.474;2024-02-15T10:02:47;14.80;1.00
31975;DHT22;18500;43.618;1.474;2024-02-15T10:05:13;14.90;1.00
31975;DHT22;18500;43.618;1.474;2024-02-15T10:07:43;15.00;1.00
31975;DHT22;18500;43.618;1.474;2024-02-15T10:10:22;15.10;1.00
31975;DHT22;18500;43.618;1.474;2024-02-15T10:12:52;15.10;1.00
31975;DHT22;18500;43.618;1.474;2024-02-15T10:15:28;15.30;1.00
31975;DHT22;18500;43.618;1.474;2024-02-15T10:17:58;15.40;1.00
31975;DHT22;18500;43.618;1.474;2024-02-15T10:20:26;15.40;1.00
31975;DHT22;18500;43.618;1.474;2024-02-15T10:25:27;15.70;1.00
31975;DHT22;18500;43.618;1.474;2024-02-15T10:28:09;15.80;1.00
31975;DHT22;18500;43.618;1.474;2024-02-15T10:30:43;15.60;1.00
31975;DHT22;18500;43.618;1.474;2024-02-15T10:33:10;15.80;1.00
31975;DHT22;18500;43.618;1.474;2024-02-15T10:35:43;16.00;1.00
31975;DHT22;18500;43.618;1.474;2024-02-15T10:38:10;16.00;1.00
31975;DHT22;18500;43.618;1.474;2024-02-15T10:40:37;15.90;1.00
31975;DHT22;18500;43.618;1.474;2024-02-15T10:43:03;15.90;1.00
31975;DHT22;18500;43.618;1.474;2024-02-15T10:45:31;16.10;1.00
31975;DHT22;18500;43.618;1.474;2024-02-15T10:47:58;15.90;1.00
31975;DHT22;18500;43.618;1.474;2024-02-15T10:50:24;15.80;1.00
31975;DHT22;18500;43.618;1.474;2024-02-15T10:52:57;15.80;1.00
31975;DHT22;18500;43.618;1.474;2024-02-15T10:55:40;15.80;1.00
31975;DHT22;18500;43.618;1.474;2024-02-15T10:58:07;15.80;1.00
31975;DHT22;18500;43.618;1.474;2024-02-15T11:00:34;15.80;1.00
31975;DHT22;18500;43.618;1.474;2024-02-15T11:03:03;15.80;1.00
31975;DHT22;18500;43.618;1.474;2024-02-15T11:05:34;15.80;1.00
31975;DHT22;18500;43.618;1.474;2024-02-15T11:08:02;15.80;1.00
31975;DHT22;18500;43.618;1.474;2024-02-15T11:10:30;15.90;1.00
31975;DHT22;18500;43.618;1.474;2024-02-15T11:12:56;16.10;1.00
31975;DHT22;18500;43.618;1.474;2024-02-15T11:15:45;16.30;1.00
31975;DHT22;18500;43.618;1.474;2024-02-15T11:18:47;16.50;1.00
31975;DHT22;18500;43.618;1.474;2024-02-15T11:21:17;16.30;1.00
31975;DHT22;18500;43.618;1.474;2024-02-15T11:23:43;16.40;1.00
31975;DHT22;18500;43.618;1.474;2024-02-15T11:26:45;16.50;1.00
31975;DHT22;18500;43.618;1.474;2024-02-15T11:29:49;16.20;1.00
31975;DHT22;18500;43.618;1.474;2024-02-15T11:42:59;16.10;1.00
31975;DHT22;18500;43.618;1.474;2024-02-15T11:45:29;16.20;1.00
31975;DHT22;18500;43.618;1.474;2024-02-15T11:48:11;16.10;1.00
31975;DHT22;18500;43.618;1.474;2024-02-15T11:50:37;16.00;1.00
31975;DHT22;18500;43.618;1.474;2024-02-15T11:53:06;16.10;1.00
31975;DHT22;18500;43.618;1.474;2024-02-15T11:55:36;16.30;1.00
31975;DHT22;18500;43.618;1.474;2024-02-15T11:58:03;16.30;1.00
31975;DHT22;18500;43.618;1.474;2024-02-15T12:00:35;16.20;1.00
31975;DHT22;18500;43.618;1.474;2024-02-15T12:03:20;16.20;1.00
31975;DHT22;18500;43.618;1.474;2024-02-15T12:06:05;16.30;1.00
31975;DHT22;18500;43.618;1.474;2024-02-15T12:08:51;16.40;1.00
31975;DHT22;18500;43.618;1.474;2024-02-15T12:11:35;16.30;1.00
31975;DHT22;18500;43.618;1.474;2024-02-15T12:14:20;16.30;1.00
31975;DHT22;18500;43.618;1.474;2024-02-15T12:17:12;16.30;1.00
31975;DHT22;18500;43.618;1.474;2024-02-15T12:20:00;16.30;1.00
31975;DHT22;18500;43.618;1.474;2024-02-15T12:22:33;16.30;1.00
31975;DHT22;18500;43.618;1.474;2024-02-15T12:25:02;16.40;1.00
31975;DHT22;18500;43.618;1.474;2024-02-15T12:27:56;16.30;1.00
31975;DHT22;18500;43.618;1.474;2024-02-15T12:30:22;16.40;1.00
31975;DHT22;18500;43.618;1.474;2024-02-15T12:32:51;16.40;1.00
31975;DHT22;18500;43.618;1.474;2024-02-15T12:35:21;16.50;1.00
31975;DHT22;18500;43.618;1.474;2024-02-15T12:38:09;16.40;1.00
31975;DHT22;18500;43.618;1.474;2024-02-15T12:40:39;16.50;1.00
31975;DHT22;18500;43.618;1.474;2024-02-15T12:43:09;16.50;1.00
31975;DHT22;18500;43.618;1.474;2024-02-15T12:45:42;16.50;1.00
31975;DHT22;18500;43.618;1.474;2024-02-15T12:48:08;16.20;1.00
31975;DHT22;18500;43.618;1.474;2024-02-15T12:50:35;16.20;1.00
31975;DHT22;18500;43.618;1.474;2024-02-15T12:53:00;16.40;1.00
31975;DHT22;18500;43.618;1.474;2024-02-15T12:55:32;16.30;1.00
31975;DHT22;18500;43.618;1.474;2024-02-15T12:58:06;16.30;1.00
31975;DHT22;18500;43.618;1.474;2024-02-15T13:00:36;16.10;1.00
31975;DHT22;18500;43.618;1.474;2024-02-15T13:03:05;15.90;1.00
31975;DHT22;18500;43.618;1.474;2024-02-15T13:05:34;15.90;1.00
31975;DHT22;18500;43.618;1.474;2024-02-15T13:08:02;16.10;1.00
31975;DHT22;18500;43.618;1.474;2024-02-15T13:10:31;16.20;1.00
31975;DHT22;18500;43.618;1.474;2024-02-15T13:12:57;16.30;1.00
31975;DHT22;18500;43.618;1.474;2024-02-15T13:15:24;16.20;1.00
31975;DHT22;18500;43.618;1.474;2024-02-15T13:17:58;16.20;1.00
31975;DHT22;18500;43.618;1.474;2024-02-15T13:20:24;16.20;1.00
31975;DHT22;18500;43.618;1.474;2024-02-15T13:23:00;16.40;1.00
31975;DHT22;18500;43.618;1.474;2024-02-15T13:25:32;16.50;1.00
31975;DHT22;18500;43.618;1.474;2024-02-15T13:27:57;16.50;1.00
31975;DHT22;18500;43.618;1.474;2024-02-15T13:30:23;16.50;1.00
31975;DHT22;18500;43.618;1.474;2024-02-15T13:32:53;16.40;1.00
31975;DHT22;18500;43.618;1.474;2024-02-15T13:35:22;16.50;1.00
31975;DHT22;18500;43.618;1.474;2024-02-15T13:37:53;16.60;1.00
31975;DHT22;18500;43.618;1.474;2024-02-15T13:40:20;16.90;1.00
31975;DHT22;18500;43.618;1.474;2024-02-15T13:42:49;17.10;1.00
31975;DHT22;18500;43.618;1.474;2024-02-15T13:45:50;17.00;1.00
31975;DHT22;18500;43.618;1.474;2024-02-15T13:48:17;16.80;1.00
31975;DHT22;18500;43.618;1.474;2024-02-15T13:50:42;16.70;1.00
31975;DHT22;18500;43.618;1.474;2024-02-15T13:53:09;16.50;1.00
31975;DHT22;18500;43.618;1.474;2024-02-15T13:55:35;16.60;1.00
31975;DHT22;18500;43.618;1.474;2024-02-15T13:58:03;16.40;1.00
31975;DHT22;18500;43.618;1.474;2024-02-15T14:00:29;16.40;1.00
31975;DHT22;18500;43.618;1.474;2024-02-15T14:03:02;16.20;1.00
31975;DHT22;18500;43.618;1.474;2024-02-15T14:05:31;16.10;1.00
31975;DHT22;18500;43.618;1.474;2024-02-15T14:07:59;16.10;1.00
31975;DHT22;18500;43.618;1.474;2024-02-15T14:10:27;16.00;1.00
31975;DHT22;18500;43.618;1.474;2024-02-15T14:12:54;16.00;1.00
31975;DHT22;18500;43.618;1.474;2024-02-15T14:15:28;16.10;1.00
31975;DHT22;18500;43.618;1.474;2024-02-15T14:17:54;16.00;1.00
31975;DHT22;18500;43.618;1.474;2024-02-15T14:20:21;15.80;1.00
31975;DHT22;18500;43.618;1.474;2024-02-15T14:22:49;15.60;1.00
31975;DHT22;18500;43.618;1.474;2024-02-15T14:25:18;15.70;1.00
31975;DHT22;18500;43.618;1.474;2024-02-15T14:27:44;15.60;1.00
31975;DHT22;18500;43.618;1.474;2024-02-15T14:30:10;15.60;1.00
31975;DHT22;18500;43.618;1.474;2024-02-15T14:32:55;15.60;1.00
31975;DHT22;18500;43.618;1.474;2024-02-15T14:35:34;15.60;1.00
31975;DHT22;18500;43.618;1.474;2024-02-15T14:38:04;15.50;1.00
31975;DHT22;18500;43.618;1.474;2024-02-15T14:40:45;15.50;1.00
31975;DHT22;18500;43.618;1.474;2024-02-15T14:43:19;15.60;1.00
31975;DHT22;18500;43.618;1.474;2024-02-15T14:45:46;15.80;1.00
31975;DHT22;18500;43.618;1.474;2024-02-15T14:48:13;16.00;1.00
31975;DHT22;18500;43.618;1.474;2024-02-15T14:50:39;16.00;1.00
31975;DHT22;18500;43.618;1.474;2024-02-15T14:53:05;16.00;1.00
31975;DHT22;18500;43.618;1.474;2024-02-15T14:55:36;15.90;1.00
31975;DHT22;18500;43.618;1.474;2024-02-15T14:58:05;15.90;1.00
31975;DHT22;18500;43.618;1.474;2024-02-15T15:00:34;15.70;1.00
31975;DHT22;18500;43.618;1.474;2024-02-15T15:02:59;15.70;1.00
31975;DHT22;18500;43.618;1.474;2024-02-15T15:05:25;15.50;1.00
31975;DHT22;18500;43.618;1.474;2024-02-15T15:08:09;15.50;1.00
31975;DHT22;18500;43.618;1.474;2024-02-15T15:10:55;15.50;1.00
31975;DHT22;18500;43.618;1.474;2024-02-15T15:13:39;15.60;1.00
31975;DHT22;18500;43.618;1.474;2024-02-15T15:16:06;15.70;1.00
31975;DHT22;18500;43.618;1.474;2024-02-15T15:18:33;15.70;1.00
31975;DHT22;18500;43.618;1.474;2024-02-15T15:20:59;15.50;1.00
31975;DHT22;18500;43.618;1.474;2024-02-15T15:23:26;15.50;1.00
31975;DHT22;18500;43.618;1.474;2024-02-15T15:25:52;15.50;1.00
31975;DHT22;18500;43.618;1.474;2024-02-15T15:28:18;15.60;1.00
31975;DHT22;18500;43.618;1.474;2024-02-15T15:30:45;15.60;1.00
31975;DHT22;18500;43.618;1.474;2024-02-15T15:33:15;15.60;1.00
31975;DHT22;18500;43.618;1.474;2024-02-15T15:35:41;15.60;1.00
31975;DHT22;18500;43.618;1.474;2024-02-15T15:38:07;15.60;1.00
31975;DHT22;18500;43.618;1.474;2024-02-15T15:40:32;15.60;1.00
31975;DHT22;18500;43.618;1.474;2024-02-15T15:42:58;15.50;1.00
31975;DHT22;18500;43.618;1.474;2024-02-15T15:45:24;15.40;1.00
31975;DHT22;18500;43.618;1.474;2024-02-15T15:47:50;15.30;1.00
31975;DHT22;18500;43.618;1.474;2024-02-15T15:50:16;15.20;1.00
31975;DHT22;18500;43.618;1.474;2024-02-15T15:52:42;15.10;1.00
31975;DHT22;18500;43.618;1.474;2024-02-15T15:55:10;15.10;1.00
31975;DHT22;18500;43.618;1.474;2024-02-15T15:57:41;14.90;1.00
31975;DHT22;18500;43.618;1.474;2024-02-15T16:00:09;14.90;1.00
31975;DHT22;18500;43.618;1.474;2024-02-15T16:02:41;14.90;1.00
31975;DHT22;18500;43.618;1.474;2024-02-15T16:05:15;14.90;1.00
31975;DHT22;18500;43.618;1.474;2024-02-15T16:07:44;14.80;1.00
31975;DHT22;18500;43.618;1.474;2024-02-15T16:10:11;14.80;1.00
31975;DHT22;18500;43.618;1.474;2024-02-15T16:12:40;14.80;1.00
31975;DHT22;18500;43.618;1.474;2024-02-15T16:15:10;14.70;1.00
31975;DHT22;18500;43.618;1.474;2024-02-15T16:17:39;14.60;1.00
31975;DHT22;18500;43.618;1.474;2024-02-15T16:20:07;14.60;1.00
31975;DHT22;18500;43.618;1.474;2024-02-15T16:22:35;14.60;1.00
31975;DHT22;18500;43.618;1.474;2024-02-15T16:25:01;14.50;1.00
31975;DHT22;18500;43.618;1.474;2024-02-15T16:27:35;14.40;1.00
31975;DHT22;18500;43.618;1.474;2024-02-15T16:30:01;14.40;1.00
31975;DHT22;18500;43.618;1.474;2024-02-15T16:32:28;14.40;1.00
31975;DHT22;18500;43.618;1.474;2024-02-15T16:34:54;14.30;1.00
31975;DHT22;18500;43.618;1.474;2024-02-15T16:37:26;14.20;1.00
31975;DHT22;18500;43.618;1.474;2024-02-15T16:39:52;14.20;1.00
31975;DHT22;18500;43.618;1.474;2024-02-15T16:42:18;14.20;1.00
31975;DHT22;18500;43.618;1.474;2024-02-15T16:44:44;14.20;1.00
31975;DHT22;18500;43.618;1.474;2024-02-15T16:47:13;14.20;1.00
31975;DHT22;18500;43.618;1.474;2024-02-15T16:49:42;14.10;1.00
31975;DHT22;18500;43.618;1.474;2024-02-15T16:52:08;14.10;1.00
31975;DHT22;18500;43.618;1.474;2024-02-15T16:54:33;14.00;1.00
31975;DHT22;18500;43.618;1.474;2024-02-15T16:56:59;14.00;1.00
31975;DHT22;18500;43.618;1.474;2024-02-15T16:59:24;14.00;1.00
31975;DHT22;18500;43.618;1.474;2024-02-15T17:01:52;13.90;1.00
31975;DHT22;18500;43.618;1.474;2024-02-15T17:04:18;13.90;1.00
31975;DHT22;18500;43.618;1.474;2024-02-15T17:06:43;13.80;1.00
31975;DHT22;18500;43.618;1.474;2024-02-15T17:09:09;13.80;1.00
31975;DHT22;18500;43.618;1.474;2024-02-15T17:11:36;13.70;1.00
31975;DHT22;18500;43.618;1.474;2024-02-15T17:14:05;13.70;1.00
31975;DHT22;18500;43.618;1.474;2024-02-15T17:16:31;13.60;1.00
31975;DHT22;18500;43.618;1.474;2024-02-15T17:18:56;13.60;1.00
31975;DHT22;18500;43.618;1.474;2024-02-15T17:21:25;13.50;1.00
31975;DHT22;18500;43.618;1.474;2024-02-15T17:23:50;13.50;1.00
31975;DHT22;18500;43.618;1.474;2024-02-15T17:26:17;13.50;1.00
31975;DHT22;18500;43.618;1.474;2024-02-15T17:28:42;13.50;1.00
31975;DHT22;18500;43.618;1.474;2024-02-15T17:31:14;13.40;1.00
31975;DHT22;18500;43.618;1.474;2024-02-15T17:33:40;13.50;1.00
31975;DHT22;18500;43.618;1.474;2024-02-15T17:36:06;13.40;1.00
31975;DHT22;18500;43.618;1.474;2024-02-15T17:38:32;13.40;1.00
31975;DHT22;18500;43.618;1.474;2024-02-15T17:41:01;13.40;1.00
31975;DHT22;18500;43.618;1.474;2024-02-15T17:43:27;13.40;1.00
31975;DHT22;18500;43.618;1.474;2024-02-15T17:45:53;13.40;1.00
31975;DHT22;18500;43.618;1.474;2024-02-15T17:48:19;13.40;1.00
31975;DHT22;18500;43.618;1.474;2024-02-15T17:50:48;13.40;1.00
31975;DHT22;18500;43.618;1.474;2024-02-15T17:53:15;13.40;1.00
31975;DHT22;18500;43.618;1.474;2024-02-15T17:55:41;13.40;1.00
31975;DHT22;18500;43.618;1.474;2024-02-15T17:58:08;13.40;1.00
31975;DHT22;18500;43.618;1.474;2024-02-15T18:00:33;13.30;1.00
31975;DHT22;18500;43.618;1.474;2024-02-15T18:02:59;13.30;1.00
31975;DHT22;18500;43.618;1.474;2024-02-15T18:05:25;13.40;1.00
31975;DHT22;18500;43.618;1.474;2024-02-15T18:07:50;13.30;1.00
31975;DHT22;18500;43.618;1.474;2024-02-15T18:10:16;13.30;1.00
31975;DHT22;18500;43.618;1.474;2024-02-15T18:12:46;13.40;1.00
31975;DHT22;18500;43.618;1.474;2024-02-15T18:15:12;13.30;1.00
31975;DHT22;18500;43.618;1.474;2024-02-15T18:17:48;13.30;1.00
31975;DHT22;18500;43.618;1.474;2024-02-15T18:20:15;13.10;1.00
31975;DHT22;18500;43.618;1.474;2024-02-15T18:22:44;13.20;1.00
31975;DHT22;18500;43.618;1.474;2024-02-15T18:25:09;13.20;1.00
31975;DHT22;18500;43.618;1.474;2024-02-15T18:27:35;13.20;1.00
31975;DHT22;18500;43.618;1.474;2024-02-15T18:30:05;13.20;1.00
31975;DHT22;18500;43.618;1.474;2024-02-15T18:32:38;13.20;1.00
31975;DHT22;18500;43.618;1.474;2024-02-15T18:35:08;13.30;1.00
31975;DHT22;18500;43.618;1.474;2024-02-15T18:37:38;13.20;1.00
31975;DHT22;18500;43.618;1.474;2024-02-15T18:40:04;13.30;1.00
31975;DHT22;18500;43.618;1.474;2024-02-15T18:42:34;13.30;1.00
31975;DHT22;18500;43.618;1.474;2024-02-15T18:45:02;13.30;1.00
31975;DHT22;18500;43.618;1.474;2024-02-15T18:47:31;13.30;1.00
31975;DHT22;18500;43.618;1.474;2024-02-15T18:49:57;13.30;1.00
31975;DHT22;18500;43.618;1.474;2024-02-15T18:52:24;13.30;1.00
31975;DHT22;18500;43.618;1.474;2024-02-15T18:54:52;13.30;1.00
31975;DHT22;18500;43.618;1.474;2024-02-15T18:57:23;13.30;1.00
31975;DHT22;18500;43.618;1.474;2024-02-15T18:59:48;13.30;1.00
31975;DHT22;18500;43.618;1.474;2024-02-15T19:02:14;13.30;1.00
31975;DHT22;18500;43.618;1.474;2024-02-15T19:04:44;13.30;1.00
31975;DHT22;18500;43.618;1.474;2024-02-15T19:07:10;13.30;1.00
31975;DHT22;18500;43.618;1.474;2024-02-15T19:09:36;13.30;1.00
31975;DHT22;18500;43.618;1.474;2024-02-15T19:12:03;13.30;1.00
31975;DHT22;18500;43.618;1.474;2024-02-15T19:14:28;13.30;1.00
31975;DHT22;18500;43.618;1.474;2024-02-15T19:16:54;13.20;1.00
31975;DHT22;18500;43.618;1.474;2024-02-15T19:19:20;13.20;1.00
31975;DHT22;18500;43.618;1.474;2024-02-15T19:21:46;13.20;1.00
31975;DHT22;18500;43.618;1.474;2024-02-15T19:24:12;13.20;1.00
31975;DHT22;18500;43.618;1.474;2024-02-15T19:26:38;13.20;1.00
31975;DHT22;18500;43.618;1.474;2024-02-15T19:29:09;13.20;1.00
31975;DHT22;18500;43.618;1.474;2024-02-15T19:31:35;13.10;1.00
31975;DHT22;18500;43.618;1.474;2024-02-15T19:34:04;13.10;1.00
31975;DHT22;18500;43.618;1.474;2024-02-15T19:36:33;13.10;1.00
31975;DHT22;18500;43.618;1.474;2024-02-15T19:39:05;13.10;1.00
31975;DHT22;18500;43.618;1.474;2024-02-15T19:41:37;13.10;1.00
31975;DHT22;18500;43.618;1.474;2024-02-15T19:44:04;13.10;1.00
31975;DHT22;18500;43.618;1.474;2024-02-15T19:46:31;13.10;1.00
31975;DHT22;18500;43.618;1.474;2024-02-15T19:48:57;13.20;1.00
31975;DHT22;18500;43.618;1.474;2024-02-15T19:51:23;13.10;1.00
31975;DHT22;18500;43.618;1.474;2024-02-15T19:53:49;13.10;1.00
31975;DHT22;18500;43.618;1.474;2024-02-15T19:56:16;13.00;1.00
31975;DHT22;18500;43.618;1.474;2024-02-15T19:58:41;13.00;1.00
31975;DHT22;18500;43.618;1.474;2024-02-15T20:01:07;12.90;1.00
31975;DHT22;18500;43.618;1.474;2024-02-15T20:03:33;13.00;1.00
31975;DHT22;18500;43.618;1.474;2024-02-15T20:05:59;13.00;1.00
31975;DHT22;18500;43.618;1.474;2024-02-15T20:08:28;13.00;1.00
31975;DHT22;18500;43.618;1.474;2024-02-15T20:10:56;13.00;1.00
31975;DHT22;18500;43.618;1.474;2024-02-15T20:13:22;13.00;1.00
31975;DHT22;18500;43.618;1.474;2024-02-15T20:15:48;13.00;1.00
31975;DHT22;18500;43.618;1.474;2024-02-15T20:18:19;13.00;1.00
31975;DHT22;18500;43.618;1.474;2024-02-15T20:20:44;13.00;1.00
31975;DHT22;18500;43.618;1.474;2024-02-15T20:23:10;13.00;1.00
31975;DHT22;18500;43.618;1.474;2024-02-15T20:25:35;12.90;1.00
31975;DHT22;18500;43.618;1.474;2024-02-15T20:28:01;12.90;1.00
31975;DHT22;18500;43.618;1.474;2024-02-15T20:30:28;12.80;1.00
31975;DHT22;18500;43.618;1.474;2024-02-15T20:32:54;12.80;1.00
31975;DHT22;18500;43.618;1.474;2024-02-15T20:35:21;12.80;1.00
31975;DHT22;18500;43.618;1.474;2024-02-15T20:37:48;12.80;1.00
31975;DHT22;18500;43.618;1.474;2024-02-15T20:40:13;12.80;1.00
31975;DHT22;18500;43.618;1.474;2024-02-15T20:42:43;12.90;1.00
31975;DHT22;18500;43.618;1.474;2024-02-15T20:45:08;12.90;1.00
31975;DHT22;18500;43.618;1.474;2024-02-15T20:47:34;12.90;1.00
31975;DHT22;18500;43.618;1.474;2024-02-15T20:50:01;12.90;1.00
31975;DHT22;18500;43.618;1.474;2024-02-15T20:52:27;12.90;1.00
31975;DHT22;18500;43.618;1.474;2024-02-15T20:54:53;12.90;1.00
31975;DHT22;18500;43.618;1.474;2024-02-15T20:57:18;12.80;1.00
31975;DHT22;18500;43.618;1.474;2024-02-15T20:59:44;12.90;1.00
31975;DHT22;18500;43.618;1.474;2024-02-15T21:02:10;13.00;1.00
31975;DHT22;18500;43.618;1.474;2024-02-15T21:04:35;12.90;1.00
31975;DHT22;18500;43.618;1.474;2024-02-15T21:07:04;12.90;1.00
31975;DHT22;18500;43.618;1.474;2024-02-15T21:09:30;12.90;1.00
31975;DHT22;18500;43.618;1.474;2024-02-15T21:11:57;12.90;1.00
31975;DHT22;18500;43.618;1.474;2024-02-15T21:14:23;12.90;1.00
31975;DHT22;18500;43.618;1.474;2024-02-15T21:16:48;12.80;1.00
31975;DHT22;18500;43.618;1.474;2024-02-15T21:19:14;12.90;1.00
31975;DHT22;18500;43.618;1.474;2024-02-15T21:21:43;12.90;1.00
31975;DHT22;18500;43.618;1.474;2024-02-15T21:24:10;12.90;1.00
31975;DHT22;18500;43.618;1.474;2024-02-15T21:26:41;12.90;1.00
31975;DHT22;18500;43.618;1.474;2024-02-15T21:29:08;12.90;1.00
31975;DHT22;18500;43.618;1.474;2024-02-15T21:31:33;12.90;1.00
31975;DHT22;18500;43.618;1.474;2024-02-15T21:34:00;12.90;1.00
31975;DHT22;18500;43.618;1.474;2024-02-15T21:36:33;12.90;1.00
31975;DHT22;18500;43.618;1.474;2024-02-15T21:38:58;12.90;1.00
31975;DHT22;18500;43.618;1.474;2024-02-15T21:41:25;12.90;1.00
31975;DHT22;18500;43.618;1.474;2024-02-15T21:43:51;12.90;1.00
31975;DHT22;18500;43.618;1.474;2024-02-15T21:46:19;12.90;1.00
31975;DHT22;18500;43.618;1.474;2024-02-15T21:48:45;12.90;1.00
31975;DHT22;18500;43.618;1.474;2024-02-15T21:51:10;13.00;1.00
31975;DHT22;18500;43.618;1.474;2024-02-15T21:53:36;12.90;1.00
31975;DHT22;18500;43.618;1.474;2024-02-15T21:56:04;13.00;1.00
31975;DHT22;18500;43.618;1.474;2024-02-15T21:58:29;13.00;1.00
31975;DHT22;18500;43.618;1.474;2024-02-15T22:00:55;12.90;1.00
31975;DHT22;18500;43.618;1.474;2024-02-15T22:03:25;12.80;1.00
31975;DHT22;18500;43.618;1.474;2024-02-15T22:05:50;12.70;1.00
31975;DHT22;18500;43.618;1.474;2024-02-15T22:08:16;12.60;1.00
31975;DHT22;18500;43.618;1.474;2024-02-15T22:10:43;12.60;1.00
31975;DHT22;18500;43.618;1.474;2024-02-15T22:13:11;12.50;1.00
31975;DHT22;18500;43.618;1.474;2024-02-15T22:15:39;12.50;1.00
31975;DHT22;18500;43.618;1.474;2024-02-15T22:18:08;12.50;1.00
31975;DHT22;18500;43.618;1.474;2024-02-15T22:20:33;12.50;1.00
31975;DHT22;18500;43.618;1.474;2024-02-15T22:23:00;12.50;1.00
31975;DHT22;18500;43.618;1.474;2024-02-15T22:25:27;12.60;1.00
31975;DHT22;18500;43.618;1.474;2024-02-15T22:27:53;12.50;1.00
31975;DHT22;18500;43.618;1.474;2024-02-15T22:30:19;12.50;1.00
31975;DHT22;18500;43.618;1.474;2024-02-15T22:32:45;12.50;1.00
31975;DHT22;18500;43.618;1.474;2024-02-15T22:35:11;12.60;1.00
31975;DHT22;18500;43.618;1.474;2024-02-15T22:37:36;12.60;1.00
31975;DHT22;18500;43.618;1.474;2024-02-15T22:40:02;12.50;1.00
31975;DHT22;18500;43.618;1.474;2024-02-15T22:42:31;12.50;1.00
31975;DHT22;18500;43.618;1.474;2024-02-15T22:44:57;12.50;1.00
31975;DHT22;18500;43.618;1.474;2024-02-15T22:47:22;12.60;1.00
31975;DHT22;18500;43.618;1.474;2024-02-15T22:49:48;12.70;1.00
31975;DHT22;18500;43.618;1.474;2024-02-15T22:52:14;12.80;1.00
